Time;durP1;ratioP1;P1;durP2;ratioP2;P2;SDS_P1;SDS_P2;PMS_P1;PMS_P2;Temp;Humidity;BMP_temperature;BMP_pressure;BME280_temperature;BME280_humidity;BME280_pressure;Samples;Min_cycle;Max_cycle;Signal;HPM_P1;HPM_P2
2021/03/24 00:01:38;;;;;;;12.73;6.10;;;;;;;13.54;56.63;101238.31;5007633;28;20074;-64
2021/03/24 00:04:04;;;;;;;11.80;6.23;;;;;;;13.57;56.67;101239.69;4998935;28;20041;-64
2021/03/24 00:06:31;;;;;;;12.67;4.90;;;;;;;13.47;56.58;101229.34;4995937;28;20372;-64
2021/03/24 00:08:59;;;;;;;20.50;5.20;;;;;;;13.38;56.76;101228.25;4998439;28;20045;-66
2021/03/24 00:11:26;;;;;;;9.20;5.53;;;;;;;13.32;56.79;101218.97;4999463;28;20048;-64
2021/03/24 00:13:52;;;;;;;15.37;4.73;;;;;;;13.37;57.07;101237.78;5004932;28;20050;-64
2021/03/24 00:16:19;;;;;;;9.23;5.30;;;;;;;13.35;57.06;101232.44;4999939;28;20046;-64
2021/03/24 00:18:45;;;;;;;20.20;6.23;;;;;;;13.35;56.90;101240.84;4992321;28;20126;-65
2021/03/24 00:21:12;;;;;;;19.63;6.23;;;;;;;13.34;57.04;101229.94;5002774;28;20513;-64
2021/03/24 00:23:38;;;;;;;14.23;5.63;;;;;;;13.40;56.99;101235.25;4990449;28;20486;-64
2021/03/24 00:26:04;;;;;;;15.17;5.40;;;;;;;13.42;56.86;101232.16;4999313;28;20129;-65
2021/03/24 00:28:31;;;;;;;11.87;6.10;;;;;;;13.35;56.95;101232.44;5001254;28;20426;-64
2021/03/24 00:30:57;;;;;;;10.97;5.13;;;;;;;13.29;56.93;101216.75;5000940;28;20474;-63
2021/03/24 00:33:26;;;;;;;9.47;4.93;;;;;;;13.32;56.92;101221.78;4995791;28;20048;-64
2021/03/24 00:35:53;;;;;;;12.60;5.47;;;;;;;13.36;56.61;101225.69;4997079;28;20068;-62
2021/03/24 00:38:22;;;;;;;12.67;5.47;;;;;;;13.20;56.58;101204.41;4995367;28;20052;-66
2021/03/24 00:40:55;;;;;;;20.43;6.00;;;;;;;13.24;56.74;101212.00;5001088;28;20046;-66
2021/03/24 00:43:22;;;;;;;14.73;6.47;;;;;;;13.25;56.90;101213.66;4998169;28;20120;-67
2021/03/24 00:45:49;;;;;;;10.43;5.50;;;;;;;13.19;56.89;101225.13;4999433;28;20054;-67
2021/03/24 00:48:30;;;;;;;8.07;5.43;;;;;;;13.11;57.06;101222.91;5006309;28;20543;-65
2021/03/24 00:50:58;;;;;;;12.13;5.63;;;;;;;13.03;57.20;101221.53;5000449;28;20419;-64
2021/03/24 00:53:25;;;;;;;19.83;6.30;;;;;;;13.00;57.11;101213.66;5000944;28;20045;-66
2021/03/24 00:55:53;;;;;;;11.50;5.40;;;;;;;13.02;57.42;101220.69;4997265;28;20455;-64
2021/03/24 00:58:20;;;;;;;9.00;4.63;;;;;;;12.95;57.39;101222.91;5001819;28;20491;-66
2021/03/24 01:00:48;;;;;;;11.50;5.07;;;;;;;12.89;57.44;101215.63;4998816;28;20070;-66
2021/03/24 01:03:15;;;;;;;15.17;5.60;;;;;;;12.71;57.49;101188.13;5000269;28;20046;-65
2021/03/24 01:05:49;;;;;;;10.97;5.53;;;;;;;12.81;57.45;101217.00;4995952;28;20050;-64
2021/03/24 01:08:25;;;;;;;12.30;5.70;;;;;;;12.81;57.52;101224.56;4997931;28;20076;-64
2021/03/24 01:10:53;;;;;;;9.93;5.57;;;;;;;12.77;57.81;101221.50;4991244;28;20129;-65
2021/03/24 01:13:21;;;;;;;23.70;6.37;;;;;;;12.71;57.79;101213.34;4999179;28;20058;-63
2021/03/24 01:15:48;;;;;;;9.53;5.57;;;;;;;12.77;57.44;101226.25;4999055;28;20060;-63
2021/03/24 01:18:16;;;;;;;11.17;5.10;;;;;;;12.80;57.63;101225.72;4997337;28;20038;-64
2021/03/24 01:20:44;;;;;;;11.50;5.53;;;;;;;12.76;57.76;101224.59;5000706;28;20058;-63
2021/03/24 01:23:11;;;;;;;8.10;4.70;;;;;;;12.70;57.83;101220.94;4998180;28;20057;-63
2021/03/24 01:25:38;;;;;;;11.43;5.93;;;;;;;12.68;57.62;101216.72;4999652;28;20046;-63
2021/03/24 01:28:09;;;;;;;13.30;5.77;;;;;;;12.68;57.99;101225.13;4995654;28;20439;-61
2021/03/24 01:30:36;;;;;;;12.47;6.03;;;;;;;12.65;57.67;101215.34;5005149;28;20508;-61
2021/03/24 01:33:03;;;;;;;12.03;5.97;;;;;;;12.71;57.86;101218.97;4996051;28;20050;-60
2021/03/24 01:35:31;;;;;;;14.13;6.00;;;;;;;12.73;57.59;101222.34;5003285;28;20050;-62
2021/03/24 01:37:58;;;;;;;17.40;5.53;;;;;;;12.73;57.71;101217.56;4997881;28;20061;-61
2021/03/24 01:40:38;;;;;;;13.00;6.50;;;;;;;12.72;57.50;101215.06;5000836;28;20038;-61
2021/03/24 01:43:08;;;;;;;10.07;6.55;;;;;;;12.66;57.70;101213.38;4994389;28;20053;-61
2021/03/24 01:45:35;;;;;;;8.23;4.70;;;;;;;12.57;57.96;101216.69;4995515;28;20051;-63
2021/03/24 01:48:05;;;;;;;16.70;6.43;;;;;;;12.63;57.68;101213.91;4994541;28;20486;-62
2021/03/24 01:50:38;;;;;;;13.70;6.65;;;;;;;12.57;57.92;101219.50;4997404;28;20050;-61
2021/03/24 01:53:20;;;;;;;10.47;5.53;;;;;;;12.56;57.85;101220.63;5003105;28;20052;-61
2021/03/24 01:55:48;;;;;;;17.60;5.47;;;;;;;12.52;57.82;101219.50;4998465;28;20054;-62
2021/03/24 01:58:15;;;;;;;18.03;6.63;;;;;;;12.44;57.80;101200.44;5000796;28;20121;-65
2021/03/24 02:00:45;;;;;;;11.97;6.33;;;;;;;12.55;57.78;101207.75;5000923;28;20484;-64
2021/03/24 02:03:11;;;;;;;13.77;6.75;;;;;;;12.61;57.49;101211.38;4998530;28;20402;-67
2021/03/24 02:05:38;;;;;;;12.60;5.90;;;;;;;12.61;57.58;101214.19;5001327;28;20042;-62
2021/03/24 02:08:12;;;;;;;15.23;7.30;;;;;;;12.60;57.68;101206.06;5001005;28;20049;-59
2021/03/24 02:10:46;;;;;;;16.37;7.77;;;;;;;12.61;57.65;101205.78;4996657;28;20082;-59
2021/03/24 02:13:18;;;;;;;14.50;8.37;;;;;;;12.66;57.51;101210.56;4993799;28;20141;-62
2021/03/24 02:15:55;;;;;;;13.93;7.50;;;;;;;12.62;57.20;101201.03;5005859;28;20053;-60
2021/03/24 02:18:24;;;;;;;18.03;7.83;;;;;;;12.66;57.58;101202.16;5001864;28;20044;-61
2021/03/24 02:21:04;;;;;;;14.73;6.97;;;;;;;12.65;57.42;101206.94;5002345;28;20055;-63
2021/03/24 02:23:38;;;;;;;20.93;7.23;;;;;;;12.70;57.42;101208.88;4999827;28;20053;-66
2021/03/24 02:26:12;;;;;;;14.33;7.40;;;;;;;12.70;57.06;101206.09;4993740;28;20120;-62
2021/03/24 02:28:42;;;;;;;17.23;8.93;;;;;;;12.65;57.26;101194.84;4998727;28;20506;-70
2021/03/24 02:31:09;;;;;;;20.17;9.02;;;;;;;12.67;57.22;101199.06;4994749;28;20062;-65
2021/03/24 02:33:41;;;;;;;17.50;7.90;;;;;;;12.62;57.15;101189.84;4999901;28;20461;-66
2021/03/24 02:36:12;;;;;;;16.57;7.93;;;;;;;12.41;57.22;101166.53;4998864;28;20442;-62
2021/03/24 02:38:43;;;;;;;12.90;7.87;;;;;;;12.62;57.20;101196.28;5001415;28;20053;-64
2021/03/24 02:41:11;;;;;;;17.00;8.67;;;;;;;12.39;57.25;101158.41;4996159;28;20049;-65
2021/03/24 02:43:39;;;;;;;17.73;8.67;;;;;;;12.59;57.15;101190.38;5002273;28;20045;-66
2021/03/24 02:46:09;;;;;;;16.50;9.77;;;;;;;12.52;57.24;101185.88;5004129;28;20201;-63
2021/03/24 02:48:39;;;;;;;27.70;9.05;;;;;;;12.51;57.15;101184.22;4996814;28;20046;-63
2021/03/24 02:51:07;;;;;;;;;;;;;;;12.55;56.57;101190.94;4999597;28;20053;-64
2021/03/24 02:53:35;;;;;;;18.80;10.73;;;;;;;12.48;56.90;101184.78;5001450;28;20317;-63
2021/03/24 02:56:04;;;;;;;21.00;9.67;;;;;;;12.45;57.05;101185.31;4998981;28;20141;-66
2021/03/24 02:58:31;;;;;;;24.02;9.90;;;;;;;12.44;57.36;101180.81;5000491;28;20486;-68
2021/03/24 03:00:59;;;;;;;27.63;10.80;;;;;;;12.45;57.04;101185.31;5002617;28;20563;-73
2021/03/24 03:03:31;;;;;;;21.53;9.80;;;;;;;12.43;57.24;101187.53;4995240;28;20076;-72
2021/03/24 03:06:02;;;;;;;18.03;9.53;;;;;;;12.41;57.24;101183.34;5002169;28;20100;-72
2021/03/24 03:08:38;;;;;;;18.27;9.40;;;;;;;12.40;57.37;101182.50;4996044;28;20561;-73
2021/03/24 03:11:22;;;;;;;15.97;9.13;;;;;;;12.38;57.10;101189.53;5004293;28;20189;-69
2021/03/24 03:13:58;;;;;;;29.30;10.70;;;;;;;12.33;57.01;101193.97;4997241;28;20045;-67
2021/03/24 03:16:30;;;;;;;23.77;9.67;;;;;;;12.31;57.18;101198.19;5004328;28;20076;-68
2021/03/24 03:18:56;;;;;;;22.23;9.90;;;;;;;12.23;57.00;101195.91;4996360;28;20053;-73
2021/03/24 03:21:30;;;;;;;16.20;9.27;;;;;;;12.04;57.32;101187.19;4995442;28;20054;-69
2021/03/24 03:24:01;;;;;;;22.87;10.17;;;;;;;11.98;57.08;101179.88;5002253;28;20109;-65
2021/03/24 03:26:31;;;;;;;19.23;9.47;;;;;;;11.93;57.09;101183.50;4996431;28;20042;-65
2021/03/24 03:29:05;;;;;;;18.50;9.82;;;;;;;11.90;57.08;101191.59;4994108;28;20462;-65
2021/03/24 03:31:34;;;;;;;22.20;10.97;;;;;;;11.89;57.04;101201.94;5002032;28;20068;-66
2021/03/24 03:34:02;;;;;;;18.48;9.32;;;;;;;11.84;56.99;101204.75;4993938;28;20043;-66
2021/03/24 03:36:33;;;;;;;21.77;10.60;;;;;;;11.72;57.06;101185.31;4997999;28;20078;-66
2021/03/24 03:39:00;;;;;;;18.33;10.93;;;;;;;11.76;57.08;101202.41;4999493;28;20049;-65
2021/03/24 03:41:31;;;;;;;30.10;10.87;;;;;;;11.72;57.20;101198.47;5004382;28;20048;-65
2021/03/24 03:44:00;;;;;;;23.47;11.30;;;;;;;11.66;57.33;101188.38;5003639;28;20057;-66
2021/03/24 03:46:31;;;;;;;25.17;11.80;;;;;;;11.69;57.52;101193.44;4999031;28;20446;-66
2021/03/24 03:48:57;;;;;;;20.30;10.23;;;;;;;11.69;57.55;101197.09;4995826;28;20042;-65
2021/03/24 03:51:45;;;;;;;22.47;10.77;;;;;;;11.68;57.65;101198.19;4994996;28;20046;-66
2021/03/24 03:54:33;;;;;;;19.80;10.80;;;;;;;11.68;57.18;101198.19;5000535;28;20064;-64
2021/03/24 03:57:35;;;;;;;22.23;10.50;;;;;;;11.63;57.42;101195.38;4991229;28;20073;-64
2021/03/24 04:00:11;;;;;;;22.97;9.73;;;;;;;11.61;57.36;101195.63;5002156;28;20053;-66
2021/03/24 04:02:45;;;;;;;25.03;10.47;;;;;;;11.15;57.58;101131.06;4992833;28;20567;-67
2021/03/24 04:05:17;;;;;;;18.73;11.00;;;;;;;11.57;57.58;101190.88;5006284;28;20114;-66
2021/03/24 04:08:06;;;;;;;18.33;10.10;;;;;;;11.48;57.61;101184.94;4993016;28;20066;-65
2021/03/24 04:10:38;;;;;;;19.92;10.05;;;;;;;11.43;57.52;101179.31;4997480;28;20054;-64
2021/03/24 04:13:06;;;;;;;20.55;10.13;;;;;;;11.46;57.49;101195.56;5001219;28;20042;-64
2021/03/24 04:15:35;;;;;;;22.23;11.20;;;;;;;11.42;57.68;101197.22;4976975;28;20073;-65
2021/03/24 04:18:07;;;;;;;17.80;9.50;;;;;;;11.32;57.43;101192.41;5001878;28;20046;-68
2021/03/24 04:20:44;;;;;;;17.37;9.33;;;;;;;11.32;57.35;101195.19;4984091;28;20585;-68
2021/03/24 04:23:15;;;;;;;24.07;9.27;;;;;;;11.31;57.34;101203.84;5002400;28;20065;-67
2021/03/24 04:26:00;;;;;;;22.07;9.27;;;;;;;11.27;57.12;101200.75;4999583;28;20073;-65
2021/03/24 04:28:31;;;;;;;18.27;10.27;;;;;;;11.22;57.18;101205.47;5000260;28;20046;-64
2021/03/24 04:31:11;;;;;;;19.77;10.90;;;;;;;11.19;57.27;101201.25;4999324;28;20164;-64
2021/03/24 04:33:43;;;;;;;16.60;10.57;;;;;;;11.19;57.31;101206.00;4993794;28;20061;-64
2021/03/24 04:36:20;;;;;;;20.77;10.18;;;;;;;11.19;57.46;101211.59;5007488;28;20425;-67
2021/03/24 04:38:51;;;;;;;20.57;10.33;;;;;;;11.22;57.55;101200.72;4996546;28;20144;-67
2021/03/24 04:41:37;;;;;;;17.57;9.90;;;;;;;11.22;57.35;101208.28;5000883;28;20048;-68
2021/03/24 04:44:13;;;;;;;18.00;10.27;;;;;;;11.18;57.57;101209.91;4996014;28;20052;-67
2021/03/24 04:46:44;;;;;;;26.57;11.63;;;;;;;11.10;58.16;101198.09;4997865;28;20046;-68
2021/03/24 04:49:19;;;;;;;24.65;10.65;;;;;;;11.04;58.96;101215.13;4996456;28;20046;-66
2021/03/24 04:51:49;;;;;;;21.53;11.33;;;;;;;11.06;59.10;101207.31;5001495;28;20050;-68
2021/03/24 04:54:30;;;;;;;17.27;9.10;;;;;;;11.01;59.30;101210.91;5002919;28;20092;-67
2021/03/24 04:57:09;;;;;;;21.83;11.50;;;;;;;11.03;59.65;101213.44;4997721;28;20395;-68
2021/03/24 04:59:40;;;;;;;21.97;11.77;;;;;;;11.06;59.42;101208.16;4996670;28;21953;-68
2021/03/24 05:02:13;;;;;;;24.13;11.93;;;;;;;11.17;59.20;101219.41;5014031;28;20044;-67
2021/03/24 05:04:53;;;;;;;23.10;11.43;;;;;;;11.20;59.29;101216.91;5004960;28;20494;-68
2021/03/24 05:07:41;;;;;;;19.00;10.80;;;;;;;11.31;59.06;101220.63;5000847;28;20521;-69
2021/03/24 05:10:12;;;;;;;22.73;12.00;;;;;;;11.33;58.83;101207.22;5003068;28;20069;-69
2021/03/24 05:12:43;;;;;;;22.77;12.77;;;;;;;11.42;59.01;101218.72;4996768;28;20051;-67
2021/03/24 05:15:19;;;;;;;26.70;11.87;;;;;;;11.44;58.87;101220.16;4999563;28;20414;-67
2021/03/24 05:17:47;;;;;;;18.97;10.77;;;;;;;11.46;59.10;101222.69;5000398;28;20061;-69
2021/03/24 05:20:39;;;;;;;25.23;11.17;;;;;;;11.46;58.96;101212.34;4999773;28;20100;-69
2021/03/24 05:23:09;;;;;;;23.47;11.70;;;;;;;11.42;59.32;101221.53;4958788;28;20046;-69
2021/03/24 05:26:03;;;;;;;29.77;11.70;;;;;;;11.46;59.16;101217.94;5001231;28;20490;-69
2021/03/24 05:28:42;;;;;;;20.33;11.03;;;;;;;11.50;58.98;101224.66;4995241;28;20545;-70
2021/03/24 05:31:23;;;;;;;22.27;10.80;;;;;;;11.53;58.94;101220.50;4991092;28;20050;-67
2021/03/24 05:34:00;;;;;;;23.80;11.90;;;;;;;11.52;59.27;101222.47;5000118;28;20053;-68
2021/03/24 05:36:45;;;;;;;20.70;10.40;;;;;;;11.46;59.33;101223.53;4995271;28;20538;-68
2021/03/24 05:39:31;;;;;;;23.33;10.60;;;;;;;11.44;59.29;101211.75;5001827;28;20125;-70
2021/03/24 05:42:20;;;;;;;22.07;11.93;;;;;;;11.55;59.28;101221.06;5002443;28;20138;-69
2021/03/24 05:45:04;;;;;;;27.80;11.60;;;;;;;11.58;59.31;101221.34;5001363;28;20060;-69
2021/03/24 05:47:49;;;;;;;21.83;11.60;;;;;;;11.61;59.05;101232.00;4999763;28;20401;-67
2021/03/24 05:50:44;;;;;;;25.27;11.67;;;;;;;11.65;59.00;101240.69;4996906;28;20053;-68
2021/03/24 05:53:37;;;;;;;19.50;11.53;;;;;;;11.63;58.91;101235.38;4999082;28;20052;-67
2021/03/24 05:56:53;;;;;;;21.47;11.90;;;;;;;11.49;58.47;101234.19;4995981;28;20060;-68
2021/03/24 05:59:38;;;;;;;19.80;10.67;;;;;;;11.35;58.71;101238.53;4995742;28;20046;-69
2021/03/24 06:02:18;;;;;;;15.07;9.53;;;;;;;11.29;58.52;101245.22;4997650;28;20054;-67
2021/03/24 06:04:55;;;;;;;21.07;11.07;;;;;;;11.25;58.41;101249.69;5001990;28;20145;-67
2021/03/24 06:07:43;;;;;;;23.53;12.17;;;;;;;11.29;58.46;101253.63;5010731;28;20042;-67
2021/03/24 06:10:15;;;;;;;19.23;10.73;;;;;;;11.29;58.45;101253.63;4996713;28;20061;-67
2021/03/24 06:12:51;;;;;;;24.07;11.77;;;;;;;11.26;58.88;101257.78;5005210;28;20608;-66
2021/03/24 06:15:41;;;;;;;25.83;12.07;;;;;;;11.19;59.39;101246.00;5000248;28;20050;-67
2021/03/24 06:18:29;;;;;;;22.20;10.57;;;;;;;11.08;59.83;101247.88;4994855;28;20051;-67
2021/03/24 06:21:08;;;;;;;21.37;11.47;;;;;;;11.09;59.85;101257.94;4997582;28;20116;-69
2021/03/24 06:23:45;;;;;;;20.90;9.03;;;;;;;11.03;60.24;101269.34;5001993;28;20049;-66
2021/03/24 06:26:38;;;;;;;24.63;9.90;;;;;;;11.00;60.59;101272.66;4996852;28;22040;-62
2021/03/24 06:29:31;;;;;;;21.00;10.60;;;;;;;10.95;60.87;101265.09;4989128;28;20056;-61
2021/03/24 06:32:08;;;;;;;17.60;8.70;;;;;;;10.90;60.75;101259.44;5008496;28;20054;-62
2021/03/24 06:35:22;;;;;;;19.53;10.23;;;;;;;10.80;61.83;101273.31;5011899;28;20064;-60
2021/03/24 06:38:10;;;;;;;17.90;10.60;;;;;;;10.74;62.21;101288.34;4921423;29;20056;-59
2021/03/24 06:40:37;;;;;;;23.60;9.73;;;;;;;10.71;62.46;101291.69;4927215;29;20055;-61
2021/03/24 06:43:32;;;;;;;20.53;10.93;;;;;;;10.73;62.51;101292.22;4978288;28;20048;-59
2021/03/24 06:46:13;;;;;;;24.87;11.73;;;;;;;10.82;61.95;101297.09;4966676;28;20850;-60
2021/03/24 06:48:40;;;;;;;24.93;11.90;;;;;;;10.98;61.34;101300.03;5004681;28;20070;-60
2021/03/24 06:51:48;;;;;;;37.23;11.60;;;;;;;10.98;61.11;101281.31;5002656;28;20141;-59
2021/03/24 06:54:35;;;;;;;24.20;11.73;;;;;;;11.16;60.74;101296.84;4980308;28;20045;-64
2021/03/24 06:57:24;;;;;;;23.10;11.23;;;;;;;11.29;60.54;101303.94;5000507;28;20168;-58
2021/03/24 07:00:18;;;;;;;27.60;12.13;;;;;;;11.39;60.20;101307.66;5000740;28;20137;-57
2021/03/24 07:03:17;;;;;;;23.10;12.00;;;;;;;11.49;60.05;101300.47;5011063;28;20163;-59
2021/03/24 07:06:05;;;;;;;21.15;12.00;;;;;;;11.68;60.05;101314.84;5003791;28;20131;-59
2021/03/24 07:08:43;;;;;;;25.10;11.95;;;;;;;11.79;59.79;101314.63;5003964;28;20050;-58
2021/03/24 07:11:41;;;;;;;20.70;11.53;;;;;;;11.87;59.67;101318.94;4999705;28;20060;-60
2021/03/24 07:14:19;;;;;;;28.20;12.27;;;;;;;11.87;59.60;101324.53;5005497;28;20398;-56
2021/03/24 07:17:10;;;;;;;17.97;10.00;;;;;;;11.92;59.16;101321.75;5005031;28;20081;-57
2021/03/24 07:20:20;;;;;;;19.23;11.73;;;;;;;11.78;59.27;101321.34;4998138;28;20490;-58
2021/03/24 07:22:47;;;;;;;17.23;10.53;;;;;;;11.71;59.47;101325.50;5003560;28;20664;-58
2021/03/24 07:25:41;;;;;;;16.37;9.70;;;;;;;11.83;59.42;101327.00;5008237;28;20053;-57
2021/03/24 07:28:41;;;;;;;21.83;11.90;;;;;;;12.26;59.24;101325.00;5001248;28;20053;-57
2021/03/24 07:31:31;;;;;;;22.20;11.67;;;;;;;12.61;58.91;101333.84;5004491;28;20050;-58
2021/03/24 07:34:17;;;;;;;22.53;12.47;;;;;;;12.93;58.82;101336.47;4998597;28;20438;-58
2021/03/24 07:37:02;;;;;;;22.53;12.63;;;;;;;13.15;58.53;101333.38;4990723;28;20303;-58
2021/03/24 07:39:43;;;;;;;19.50;11.30;;;;;;;13.21;58.35;101337.88;4995853;28;20144;-56
2021/03/24 07:42:18;;;;;;;16.93;10.50;;;;;;;13.44;58.13;101334.56;4994669;28;20050;-58
2021/03/24 07:45:22;;;;;;;19.77;11.00;;;;;;;13.57;57.93;101332.31;5006020;28;20109;-58
2021/03/24 07:47:57;;;;;;;27.93;11.50;;;;;;;13.88;57.60;101342.38;5003712;28;20042;-57
2021/03/24 07:50:37;;;;;;;17.43;11.70;;;;;;;14.21;57.21;101349.31;5005094;28;20045;-57
2021/03/24 07:53:23;;;;;;;19.52;12.48;;;;;;;14.52;56.56;101345.56;5006646;28;20089;-59
2021/03/24 07:56:08;;;;;;;20.90;12.00;;;;;;;14.77;56.29;101351.09;4996826;28;20056;-58
2021/03/24 07:58:59;;;;;;;18.33;11.00;;;;;;;15.06;55.68;101339.94;5006309;28;20058;-58
2021/03/24 08:01:33;;;;;;;17.50;10.70;;;;;;;15.33;55.10;101349.88;5005226;28;20561;-59
2021/03/24 08:04:45;;;;;;;25.47;14.60;;;;;;;15.61;54.92;101353.88;5003610;28;20046;-58
2021/03/24 08:07:50;;;;;;;21.30;13.67;;;;;;;16.07;54.40;101353.47;5007144;28;20049;-60
2021/03/24 08:10:28;;;;;;;25.87;15.13;;;;;;;16.46;53.68;101363.72;4985292;28;20082;-59
2021/03/24 08:13:14;;;;;;;54.53;29.80;;;;;;;16.76;52.95;101371.00;5006770;28;20045;-59
2021/03/24 08:16:25;;;;;;;33.73;19.23;;;;;;;17.01;52.42;101372.59;5010041;28;20076;-58
2021/03/24 08:19:08;;;;;;;26.17;16.53;;;;;;;17.12;52.13;101376.94;5010104;28;20049;-58
2021/03/24 08:21:45;;;;;;;29.70;15.40;;;;;;;17.46;51.10;101378.69;5005317;28;20077;-58
2021/03/24 08:24:24;;;;;;;26.85;13.50;;;;;;;17.77;50.84;101381.88;4997665;28;20046;-59
2021/03/24 08:26:58;;;;;;;22.58;13.85;;;;;;;18.09;50.07;101381.03;5000346;28;20568;-59
2021/03/24 08:29:36;;;;;;;23.33;15.93;;;;;;;18.54;48.80;101386.09;5005061;28;20046;-58
2021/03/24 08:32:39;;;;;;;19.98;13.80;;;;;;;18.80;48.78;101380.75;5000302;28;20049;-58
2021/03/24 08:35:38;;;;;;;24.30;13.77;;;;;;;19.12;47.94;101379.78;4998208;28;20058;-59
2021/03/24 08:38:23;;;;;;;21.02;13.07;;;;;;;19.44;47.34;101387.22;5000232;28;20504;-58
2021/03/24 08:40:57;;;;;;;25.08;11.90;;;;;;;19.74;46.67;101384.81;5006427;28;20064;-58
2021/03/24 08:43:46;;;;;;;24.85;13.65;;;;;;;20.04;45.94;101386.88;5004338;28;20049;-57
2021/03/24 08:46:23;;;;;;;19.10;10.45;;;;;;;20.37;44.71;101386.53;5009877;28;20050;-58
2021/03/24 08:49:03;;;;;;;19.10;11.10;;;;;;;20.56;44.43;101389.16;5003330;28;20054;-58
2021/03/24 08:51:44;;;;;;;;;;;;;;;20.51;46.03;101389.28;5005591;28;20054;-58
2021/03/24 08:54:48;;;;;;;17.45;11.63;;;;;;;20.93;44.21;101399.13;5010231;28;19979;-58
2021/03/24 08:57:27;;;;;;;16.45;9.52;;;;;;;21.23;42.91;101407.84;5007172;28;20052;-58
2021/03/24 09:00:16;;;;;;;18.13;10.80;;;;;;;21.39;42.45;101399.72;5001121;28;20049;-59
2021/03/24 09:03:22;;;;;;;15.45;10.70;;;;;;;21.58;42.38;101399.41;4985770;28;20126;-59
2021/03/24 09:05:58;;;;;;;19.50;10.57;;;;;;;21.90;41.41;101406.53;5010159;28;20055;-60
2021/03/24 09:08:51;;;;;;;18.02;9.50;;;;;;;22.18;40.54;101402.16;5012032;28;20124;-59
2021/03/24 09:11:27;;;;;;;19.13;11.18;;;;;;;22.47;40.03;101407.09;4998577;28;20089;-58
2021/03/24 09:14:02;;;;;;;15.15;9.38;;;;;;;22.71;39.34;101428.44;5009954;28;20124;-59
2021/03/24 09:16:58;;;;;;;20.85;9.70;;;;;;;22.76;39.46;101411.16;5009399;28;20046;-58
2021/03/24 09:19:45;;;;;;;16.65;9.55;;;;;;;22.98;38.53;101420.63;4956719;28;20057;-59
2021/03/24 09:22:19;;;;;;;20.05;10.00;;;;;;;23.03;38.65;101417.56;5005670;28;20509;-57
2021/03/24 09:25:04;;;;;;;16.20;8.48;;;;;;;23.23;38.08;101413.09;5011793;28;20101;-59
2021/03/24 09:27:39;;;;;;;14.98;9.23;;;;;;;23.52;37.58;101426.44;5007660;28;20045;-58
2021/03/24 09:30:31;;;;;;;14.55;9.07;;;;;;;23.69;37.36;101417.78;5005126;28;20410;-59
2021/03/24 09:33:31;;;;;;;15.60;8.70;;;;;;;23.79;36.99;101417.34;5000727;28;20494;-58
2021/03/24 09:36:35;;;;;;;15.13;9.05;;;;;;;23.82;36.68;101419.50;5006534;28;20038;-58
2021/03/24 09:39:35;;;;;;;13.85;8.32;;;;;;;23.98;36.26;101413.97;5004198;28;20465;-59
2021/03/24 09:42:14;;;;;;;12.50;7.50;;;;;;;24.20;35.43;101427.00;5003765;28;20045;-58
2021/03/24 09:44:47;;;;;;;15.10;6.72;;;;;;;24.23;34.52;101429.16;5010000;28;20046;-59
2021/03/24 09:47:21;;;;;;;12.15;6.35;;;;;;;24.31;34.71;101433.97;5002671;28;20128;-58
2021/03/24 09:49:55;;;;;;;11.73;6.63;;;;;;;24.27;34.38;101415.00;5003093;28;20041;-59
2021/03/24 09:52:44;;;;;;;10.98;6.30;;;;;;;24.43;34.21;101427.47;4998087;28;20501;-58
2021/03/24 09:55:18;;;;;;;11.60;7.07;;;;;;;24.43;33.89;101415.22;5016092;28;20042;-58
2021/03/24 09:57:47;;;;;;;13.07;6.82;;;;;;;24.75;33.55;101442.88;5006051;28;20053;-58
2021/03/24 10:00:17;;;;;;;10.30;6.10;;;;;;;24.90;33.04;101432.75;5003965;28;20061;-59
2021/03/24 10:02:58;;;;;;;7.53;5.72;;;;;;;24.68;32.79;101419.75;5006750;28;20046;-59
2021/03/24 10:05:48;;;;;;;8.38;5.68;;;;;;;24.67;32.95;101429.50;5003847;28;20041;-59
2021/03/24 10:08:30;;;;;;;7.70;4.97;;;;;;;24.56;33.43;101428.31;4995642;28;20100;-59
2021/03/24 10:11:06;;;;;;;7.43;4.95;;;;;;;24.78;32.76;101412.75;5009119;28;20073;-59
2021/03/24 10:13:59;;;;;;;7.85;4.40;;;;;;;24.69;32.69;101415.72;5001246;28;20049;-58
2021/03/24 10:16:35;;;;;;;8.48;4.45;;;;;;;24.16;32.36;101426.03;5004072;28;20049;-57
2021/03/24 10:19:19;;;;;;;9.65;4.43;;;;;;;24.06;32.68;101421.63;5004074;28;20425;-58
2021/03/24 10:21:56;;;;;;;10.95;4.55;;;;;;;24.10;32.40;101422.59;5004121;28;20052;-59
2021/03/24 10:24:32;;;;;;;7.97;3.97;;;;;;;24.20;31.87;101426.19;4997922;28;20041;-58
2021/03/24 10:27:08;;;;;;;6.03;4.18;;;;;;;24.07;31.74;101423.31;5011259;28;20037;-58
2021/03/24 10:29:52;;;;;;;7.43;3.90;;;;;;;24.03;31.83;101419.47;4999235;28;20046;-59
2021/03/24 10:32:27;;;;;;;10.77;4.57;;;;;;;24.31;31.84;101427.41;4997984;28;20390;-59
2021/03/24 10:35:29;;;;;;;5.65;3.53;;;;;;;23.83;32.20;101415.47;5003679;28;20482;-58
2021/03/24 10:38:11;;;;;;;7.20;4.25;;;;;;;23.39;32.18;101425.56;5000466;28;20522;-58
2021/03/24 10:40:44;;;;;;;8.52;4.07;;;;;;;23.04;33.15;101420.09;5002754;28;20145;-59
2021/03/24 10:43:40;;;;;;;11.10;4.22;;;;;;;22.61;32.91;101417.44;4997458;28;20442;-57
2021/03/24 10:46:11;;;;;;;7.68;4.63;;;;;;;22.66;33.47;101420.06;4982591;28;20077;-58
2021/03/24 10:48:48;;;;;;;9.95;5.03;;;;;;;22.85;33.15;101411.94;5007408;28;20038;-59
2021/03/24 10:51:24;;;;;;;6.03;4.93;;;;;;;23.08;32.95;101411.69;4992927;28;20494;-59
2021/03/24 10:54:12;;;;;;;9.73;5.63;;;;;;;23.62;32.47;101418.31;4996094;28;20038;-59
2021/03/24 10:57:09;;;;;;;11.57;5.95;;;;;;;23.89;32.16;101416.91;4994005;28;20065;-58
2021/03/24 10:59:44;;;;;;;9.05;4.72;;;;;;;24.27;32.25;101409.31;5004656;28;20057;-58
2021/03/24 11:02:11;;;;;;;6.78;4.00;;;;;;;23.95;31.88;101413.84;5006247;28;20165;-58
2021/03/24 11:05:08;;;;;;;10.18;5.40;;;;;;;22.80;32.31;101402.75;5009380;28;20418;-59
2021/03/24 11:07:42;;;;;;;11.38;4.80;;;;;;;21.87;33.69;101410.88;5002284;28;20155;-59
2021/03/24 11:10:11;;;;;;;8.60;4.53;;;;;;;21.37;34.07;101404.88;5009327;28;20049;-58
2021/03/24 11:12:42;;;;;;;6.13;4.05;;;;;;;20.98;34.47;101407.47;5010531;28;20192;-59
2021/03/24 11:15:22;;;;;;;6.05;4.32;;;;;;;20.63;34.70;101403.69;4999079;28;20122;-59
2021/03/24 11:18:01;;;;;;;5.53;4.15;;;;;;;21.46;34.89;101406.56;4996384;28;20050;-57
2021/03/24 11:20:49;;;;;;;7.03;3.90;;;;;;;22.38;33.89;101397.75;5003623;28;20104;-58
2021/03/24 11:23:40;;;;;;;8.50;4.75;;;;;;;23.18;33.60;101402.75;5007647;28;20050;-57
2021/03/24 11:26:32;;;;;;;11.93;4.43;;;;;;;23.99;32.46;101400.56;5001647;28;20459;-58
2021/03/24 11:29:04;;;;;;;8.07;4.68;;;;;;;23.99;32.29;101398.53;5006748;28;20086;-57
2021/03/24 11:31:56;;;;;;;11.48;5.75;;;;;;;23.74;32.46;101389.06;5007604;28;20053;-58
2021/03/24 11:35:03;;;;;;;12.57;6.65;;;;;;;23.05;33.21;101393.25;5006741;28;20054;-59
2021/03/24 11:37:48;;;;;;;9.55;5.32;;;;;;;22.39;33.53;101393.75;5012254;28;20535;-58
2021/03/24 11:40:36;;;;;;;9.40;5.32;;;;;;;21.91;34.44;101394.81;5005285;28;20038;-59
2021/03/24 11:43:18;;;;;;;7.30;4.88;;;;;;;21.61;34.52;101396.72;5007295;28;20055;-59
2021/03/24 11:45:48;;;;;;;10.07;5.07;;;;;;;22.08;34.35;101387.44;4999125;28;20459;-59
2021/03/24 11:48:29;;;;;;;9.20;5.18;;;;;;;22.75;33.73;101349.69;5003981;28;20136;-58
2021/03/24 11:51:14;;;;;;;12.68;5.60;;;;;;;24.11;32.77;101392.03;5007588;28;20119;-58
2021/03/24 11:53:47;;;;;;;11.18;5.68;;;;;;;25.11;31.20;101392.63;4991904;28;20145;-59
2021/03/24 11:56:51;;;;;;;8.82;5.10;;;;;;;25.05;31.50;101385.47;4995301;28;20062;-60
2021/03/24 11:59:25;;;;;;;7.38;4.97;;;;;;;25.91;30.05;101386.09;4992491;28;20041;-59
2021/03/24 12:02:46;;;;;;;11.00;6.30;;;;;;;27.18;29.43;101386.19;4987245;28;20078;-60
2021/03/24 12:05:18;;;;;;;11.90;4.57;;;;;;;27.98;27.86;101390.38;4910975;29;20103;-58
2021/03/24 12:08:11;;;;;;;7.22;4.53;;;;;;;28.44;27.18;101381.84;4985342;28;20108;-59
2021/03/24 12:10:43;;;;;;;7.15;4.40;;;;;;;28.95;26.07;101358.47;4985730;28;20050;-58